Time;durP1;ratioP1;P1;durP2;ratioP2;P2;SDS_P1;SDS_P2;PMS_P1;PMS_P2;Temp;Humidity;BMP_temperature;BMP_pressure;BME280_temperature;BME280_humidity;BME280_pressure;Samples;Min_cycle;Max_cycle;Signal;HPM_P1;HPM_P2
2021/03/17 17:49:47;;;;;;;10.68;3.85;;;9.20;99.90;;;;;;4262829;27;20582;-70
2021/03/17 17:51:53;;;;;;;8.82;2.67;;;8.70;99.90;;;;;;4259098;27;20120;-75
2021/03/17 17:53:59;;;;;;;10.18;3.00;;;9.30;99.90;;;;;;4252331;27;20044;-74
2021/03/17 17:56:06;;;;;;;9.70;2.47;;;10.00;99.90;;;;;;4243255;27;20047;-74
2021/03/17 17:58:15;;;;;;;10.63;3.10;;;10.00;99.90;;;;;;4210046;28;20072;-74
2021/03/17 18:00:21;;;;;;;12.82;2.85;;;9.80;99.50;;;;;;4248880;27;20043;-72
2021/03/17 18:02:25;;;;;;;11.38;3.08;;;10.10;99.40;;;;;;4256795;27;20521;-73
2021/03/17 18:04:34;;;;;;;10.98;3.20;;;10.40;99.30;;;;;;4245289;28;20083;-72
2021/03/17 18:06:38;;;;;;;12.57;4.68;;;11.90;97.50;;;;;;4259193;27;20487;-71
2021/03/17 18:08:41;;;;;;;14.93;7.15;;;11.10;96.90;;;;;;4245729;28;20495;-72
2021/03/17 18:10:46;;;;;;;12.60;4.72;;;10.80;99.00;;;;;;4255286;27;20130;-72
2021/03/17 18:12:49;;;;;;;13.10;4.60;;;11.90;96.30;;;;;;4229813;28;20046;-72
2021/03/17 18:14:53;;;;;;;16.33;4.13;;;10.70;97.10;;;;;;4248938;27;20066;-73
2021/03/17 18:16:57;;;;;;;21.50;7.68;;;11.70;95.80;;;;;;4255863;27;20057;-73
2021/03/17 18:19:01;;;;;;;10.77;3.05;;;12.20;96.90;;;;;;4234032;27;20052;-71
2021/03/17 18:21:05;;;;;;;12.80;4.90;;;12.50;93.60;;;;;;4241704;27;20051;-73
2021/03/17 18:23:12;;;;;;;14.63;5.05;;;13.10;94.00;;;;;;4246550;27;20047;-72
2021/03/17 18:25:21;;;;;;;9.23;3.80;;;12.90;94.10;;;;;;4260209;27;20103;-72
2021/03/17 18:27:27;;;;;;;7.85;3.45;;;13.90;92.10;;;;;;4261245;27;20047;-74
2021/03/17 18:29:30;;;;;;;18.60;3.42;;;14.10;91.60;;;;;;4256160;27;20124;-73
2021/03/17 18:31:37;;;;;;;10.20;3.13;;;13.30;87.50;;;;;;4244106;28;20047;-71
2021/03/17 18:33:42;;;;;;;11.07;3.30;;;14.20;90.00;;;;;;4249806;27;20039;-70
2021/03/17 18:35:45;;;;;;;13.98;3.97;;;14.60;82.30;;;;;;4257271;27;20501;-69
2021/03/17 18:37:49;;;;;;;9.13;2.83;;;14.00;87.30;;;;;;4253674;27;20043;-69
2021/03/17 18:39:55;;;;;;;13.25;3.90;;;14.60;87.80;;;;;;4255057;27;20485;-69
2021/03/17 18:42:01;;;;;;;11.18;3.45;;;14.90;81.90;;;;;;4254897;27;20047;-75
2021/03/17 18:44:07;;;;;;;13.88;3.45;;;13.70;86.20;;;;;;4261852;27;20291;-72
2021/03/17 18:46:11;;;;;;;16.75;3.70;;;15.30;83.50;;;;;;4237192;28;20644;-71
2021/03/17 18:48:14;;;;;;;12.90;2.88;;;13.30;81.30;;;;;;4257673;27;20125;-70
2021/03/17 18:50:21;;;;;;;10.18;3.65;;;14.00;84.70;;;;;;4246837;27;20438;-70
2021/03/17 18:52:31;;;;;;;13.90;3.85;;;14.10;86.50;;;;;;4244233;27;20044;-71
2021/03/17 18:54:39;;;;;;;11.43;3.38;;;14.40;80.70;;;;;;4247868;27;20073;-70
2021/03/17 18:56:45;;;;;;;;;;;14.70;80.60;;;;;;4226829;28;20102;-69
2021/03/17 18:58:49;;;;;;;17.42;3.92;;;13.80;86.80;;;;;;4243062;28;19924;-71
2021/03/17 19:00:55;;;;;;;9.98;2.97;;;12.50;89.20;;;;;;4233428;28;20399;-73
2021/03/17 19:02:59;;;;;;;7.75;3.28;;;13.20;87.50;;;;;;4220995;28;20105;-72
2021/03/17 19:05:03;;;;;;;12.15;3.13;;;13.20;92.20;;;;;;4233246;28;20043;-72
2021/03/17 19:07:07;;;;;;;;;;;13.10;90.00;;;;;;4241546;27;20179;-72
2021/03/17 19:09:12;;;;;;;8.55;2.83;;;13.00;93.90;;;;;;4230812;28;20014;-71
2021/03/17 19:11:17;;;;;;;11.45;3.10;;;13.80;91.10;;;;;;4232715;28;20059;-72
2021/03/17 19:13:25;;;;;;;12.82;3.17;;;14.40;80.90;;;;;;4223448;28;20044;-72
2021/03/17 19:15:30;;;;;;;6.97;2.03;;;14.40;85.10;;;;;;4246829;27;20055;-71
2021/03/17 19:17:39;;;;;;;10.13;2.83;;;15.30;82.90;;;;;;4213965;28;20068;-71
2021/03/17 19:19:42;;;;;;;15.82;4.43;;;15.80;79.90;;;;;;4231117;28;20047;-70
2021/03/17 19:21:47;;;;;;;10.52;3.10;;;15.70;71.60;;;;;;4213176;28;20490;-72
2021/03/17 19:23:50;;;;;;;10.07;2.88;;;15.40;78.90;;;;;;4212993;27;20051;-71
2021/03/17 19:25:54;;;;;;;7.95;2.60;;;16.00;77.40;;;;;;4230043;28;20046;-71
2021/03/17 19:28:07;;;;;;;11.25;3.33;;;16.60;75.60;;;;;;4248063;27;20047;-71
2021/03/17 19:30:13;;;;;;;14.10;4.03;;;16.30;70.40;;;;;;4224845;28;20082;-71
2021/03/17 19:32:17;;;;;;;10.73;3.08;;;15.30;72.40;;;;;;4230975;28;20055;-71
2021/03/17 19:34:20;;;;;;;12.02;3.10;;;16.20;73.90;;;;;;4230653;28;20103;-72
2021/03/17 19:36:25;;;;;;;9.23;3.10;;;16.60;71.70;;;;;;4212148;28;20044;-72
2021/03/17 19:38:29;;;;;;;;;;;16.10;74.40;;;;;;4231258;28;20077;-71
2021/03/17 19:40:34;;;;;;;6.80;2.72;;;15.70;72.30;;;;;;4234697;27;20014;-71
2021/03/17 19:42:37;;;;;;;12.35;4.65;;;16.20;74.60;;;;;;4218159;28;20043;-72
2021/03/17 19:44:41;;;;;;;11.55;3.63;;;14.80;69.40;;;;;;4227177;28;20043;-71
2021/03/17 19:46:49;;;;;;;11.80;3.80;;;15.30;78.70;;;;;;4218293;28;20109;-69
2021/03/17 19:48:54;;;;;;;8.35;3.28;;;15.00;77.60;;;;;;4229352;28;20051;-69
2021/03/17 19:50:59;;;;;;;12.02;4.15;;;15.80;75.40;;;;;;4230413;28;20492;-70
2021/03/17 19:53:04;;;;;;;9.02;2.80;;;15.60;71.70;;;;;;4212493;28;20089;-67
2021/03/17 19:55:12;;;;;;;8.77;3.58;;;17.10;72.10;;;;;;4230408;28;20136;-69
2021/03/17 19:57:15;;;;;;;16.95;7.72;;;17.50;67.50;;;;;;4212438;28;20647;-70
2021/03/17 19:59:20;;;;;;;24.13;15.02;;;17.00;67.70;;;;;;4212287;28;20056;-70
2021/03/17 20:01:25;;;;;;;33.58;17.48;;;17.30;67.50;;;;;;4230285;28;20134;-70
2021/03/17 20:03:34;;;;;;;28.23;16.48;;;17.40;67.20;;;;;;4237249;27;20050;-70
2021/03/17 20:05:39;;;;;;;19.73;10.07;;;17.60;66.20;;;;;;4247325;27;20134;-69
2021/03/17 20:07:43;;;;;;;20.58;12.05;;;16.90;67.20;;;;;;4247501;27;20051;-69
2021/03/17 20:09:48;;;;;;;22.40;11.65;;;16.40;69.20;;;;;;4240918;27;20168;-70
2021/03/17 20:11:52;;;;;;;21.65;11.20;;;17.10;68.10;;;;;;4229600;28;20479;-67
2021/03/17 20:13:56;;;;;;;27.75;12.82;;;17.80;66.70;;;;;;4225697;28;20130;-68
2021/03/17 20:16:01;;;;;;;17.88;9.45;;;18.30;64.70;;;;;;4228403;28;20048;-69
2021/03/17 20:18:07;;;;;;;20.70;10.05;;;18.70;62.00;;;;;;4238472;27;20050;-68
2021/03/17 20:20:26;;;;;;;20.38;8.85;;;19.00;63.70;;;;;;4229283;27;20047;-69
2021/03/17 20:22:35;;;;;;;20.42;8.10;;;19.20;59.60;;;;;;4236883;27;20045;-68
2021/03/17 20:24:40;;;;;;;19.83;9.27;;;19.30;58.50;;;;;;4240209;27;20432;-68
2021/03/17 20:26:46;;;;;;;13.88;6.57;;;19.30;57.30;;;;;;4247025;27;20391;-68
2021/03/17 20:28:52;;;;;;;18.30;6.82;;;19.10;56.80;;;;;;4245902;27;20047;-69
2021/03/17 20:30:59;;;;;;;14.15;5.88;;;19.20;56.10;;;;;;4228593;28;20040;-68
2021/03/17 20:33:06;;;;;;;12.38;6.35;;;19.30;55.10;;;;;;4229793;27;20130;-68
2021/03/17 20:35:12;;;;;;;13.45;5.45;;;19.30;55.00;;;;;;4233977;27;20595;-68
2021/03/17 20:37:33;;;;;;;14.43;4.85;;;19.50;53.50;;;;;;4228970;27;20040;-69
2021/03/17 20:39:40;;;;;;;9.70;4.10;;;19.00;53.00;;;;;;4213853;27;20752;-69
2021/03/17 20:41:44;;;;;;;8.55;4.07;;;19.10;53.90;;;;;;4245477;27;20047;-68
2021/03/17 20:43:48;;;;;;;10.90;4.07;;;18.90;53.90;;;;;;4245471;27;20050;-69
2021/03/17 20:45:54;;;;;;;9.23;3.72;;;18.40;55.10;;;;;;4244005;27;20043;-69
2021/03/17 20:48:00;;;;;;;6.45;3.58;;;18.80;54.50;;;;;;4246415;27;20535;-68
2021/03/17 20:50:07;;;;;;;6.72;3.42;;;19.20;53.90;;;;;;4246095;27;20392;-68
2021/03/17 20:52:11;;;;;;;10.70;3.72;;;19.20;53.40;;;;;;4224819;28;20113;-69
2021/03/17 20:54:16;;;;;;;7.50;3.55;;;19.40;52.80;;;;;;4229536;28;20090;-70
2021/03/17 20:56:21;;;;;;;11.82;3.58;;;19.40;52.50;;;;;;4228489;28;20664;-70
2021/03/17 20:58:27;;;;;;;11.23;3.85;;;19.60;52.20;;;;;;4227399;27;20117;-70
2021/03/17 21:00:33;;;;;;;11.57;3.53;;;19.10;49.70;;;;;;4225206;28;20071;-70
2021/03/17 21:02:36;;;;;;;13.75;4.80;;;18.90;53.00;;;;;;4239773;27;20047;-69
2021/03/17 21:04:44;;;;;;;11.98;4.20;;;17.80;52.70;;;;;;4210817;28;20128;-69
2021/03/17 21:06:49;;;;;;;9.88;3.60;;;17.10;56.40;;;;;;4228357;28;20055;-68
2021/03/17 21:08:54;;;;;;;9.30;3.42;;;16.40;62.00;;;;;;4210290;28;20058;-69
2021/03/17 21:11:02;;;;;;;11.10;3.78;;;17.00;61.50;;;;;;4235811;27;20108;-69
2021/03/17 21:13:06;;;;;;;18.17;4.43;;;17.50;59.60;;;;;;4236224;27;20043;-69
2021/03/17 21:15:12;;;;;;;15.02;4.78;;;17.00;59.70;;;;;;4228063;27;20081;-69
2021/03/17 21:17:16;;;;;;;21.88;10.73;;;17.40;58.10;;;;;;4243200;27;20118;-68
2021/03/17 21:19:22;;;;;;;26.40;15.43;;;17.70;59.20;;;;;;4245808;27;20681;-68
2021/03/17 21:21:27;;;;;;;22.67;15.07;;;17.80;58.60;;;;;;4245337;27;20047;-68
2021/03/17 21:23:31;;;;;;;21.17;12.98;;;18.20;58.20;;;;;;4245930;27;20465;-67
2021/03/17 21:25:35;;;;;;;16.02;5.50;;;18.20;55.60;;;;;;4227945;27;20132;-67
2021/03/17 21:27:41;;;;;;;21.57;10.83;;;15.60;59.90;;;;;;4236416;27;20043;-69
2021/03/17 21:29:45;;;;;;;16.08;8.32;;;16.20;65.10;;;;;;4213843;28;20052;-68
2021/03/17 21:31:51;;;;;;;20.98;9.45;;;16.30;63.20;;;;;;4233031;27;20043;-68
2021/03/17 21:33:59;;;;;;;18.15;7.97;;;16.70;62.60;;;;;;4234740;27;20065;-67
2021/03/17 21:36:04;;;;;;;21.60;8.02;;;16.50;61.90;;;;;;4232908;27;20208;-66
2021/03/17 21:38:08;;;;;;;13.77;8.32;;;16.70;63.90;;;;;;4238285;27;20129;-68
2021/03/17 21:40:13;;;;;;;14.20;7.68;;;15.90;68.60;;;;;;4231382;27;20048;-67
2021/03/17 21:42:17;;;;;;;15.82;4.70;;;16.20;67.50;;;;;;4228855;28;20477;-68
2021/03/17 21:44:29;;;;;;;24.20;5.35;;;14.90;62.90;;;;;;4228597;28;20403;-69
2021/03/17 21:46:33;;;;;;;17.67;5.82;;;14.50;71.00;;;;;;4231336;28;20074;-69
2021/03/17 21:48:37;;;;;;;17.52;4.97;;;14.00;69.90;;;;;;4211387;28;20424;-69
2021/03/17 21:50:43;;;;;;;21.02;4.90;;;12.60;79.90;;;;;;4225304;28;20040;-69
2021/03/17 21:52:47;;;;;;;21.67;5.30;;;11.70;81.50;;;;;;4229707;28;20055;-73
2021/03/17 21:54:53;;;;;;;13.93;4.50;;;11.30;84.10;;;;;;4231029;28;20058;-69
2021/03/17 21:56:56;;;;;;;14.98;4.03;;;11.40;87.20;;;;;;4219458;28;20089;-69
2021/03/17 21:58:58;;;;;;;14.30;5.78;;;12.10;85.60;;;;;;4228503;28;20047;-72
